»·PEaware :: 9K2JM BGBW-BIHN

9K2JM :: BGBW-BIHN

FLIGHT INFORMATION

Flight Status: Arrived
Operator: Unknown
More flights by this operator :: More flights under this callsign
Pilot: Jasem M. (4981)
Aircraft: CIRRUS SR-22
(SR22)
More flights by this aircraft type
Origin: BGBW Narsarsuaq
Greenland
Destination: BIHN Hornafjordur
Iceland
More flights between these airports :: More routes between these airports
Route: ING
File this flight plan on PilotEdge
Remarks:
Altitude:
(Current/Filed)
11,000ft
Speed:
(Current/Filed)
180kts
Departed: 20-Apr-17 03:06 AM
Arrived: 20-Apr-17 07:11 AM
Distance/Time
Traveled:
843nm/4:05
Distance/Time
To Go:
Arrived

Flight Plot

Page will automatically refresh every two minutes.

Flight plan parsing failed; only flown route is shown


Map Options




Map Legend


Flown Route
Filed Route
Departure Airport
Arrival Airport
Navaid (VOR, NDB)
Fix

Horizontal Profiles

Position Reports

Time Latitude Longitude Heading Altitude Ground
Speed
20-Apr-17 03:07 61.330512 -44.635745 61 11006ft 213kts
20-Apr-17 03:08 61.349418 -44.542924 61 11006ft 212kts
20-Apr-17 03:09 61.369653 -44.443580 61 11006ft 212kts
20-Apr-17 03:10 61.391682 -44.334991 62 11003ft 213kts
20-Apr-17 03:11 61.414096 -44.223883 62 11003ft 212kts
20-Apr-17 03:12 61.436395 -44.112755 62 11003ft 212kts
20-Apr-17 03:13 61.458694 -44.001011 62 11004ft 212kts
20-Apr-17 03:14 61.480797 -43.889675 62 11004ft 212kts
20-Apr-17 03:14 61.499287 -43.796069 62 11005ft 212kts
20-Apr-17 03:16 61.524977 -43.665208 62 11005ft 212kts
20-Apr-17 03:16 61.543345 -43.571134 62 11005ft 213kts
20-Apr-17 03:18 61.568935 -43.439347 62 11006ft 213kts
20-Apr-17 03:18 61.586548 -43.348138 63 11006ft 213kts
20-Apr-17 03:20 61.611464 -43.218471 63 11003ft 212kts
20-Apr-17 03:20 61.629233 -43.125275 62 11003ft 212kts
20-Apr-17 03:21 61.650484 -43.013265 62 11003ft 212kts
20-Apr-17 03:22 61.671735 -42.900895 61 11004ft 212kts
20-Apr-17 03:23 61.692857 -42.788590 61 11004ft 212kts
20-Apr-17 03:24 61.714078 -42.675024 61 11005ft 212kts
20-Apr-17 03:25 61.735079 -42.561953 61 11005ft 212kts
20-Apr-17 03:26 61.755738 -42.450032 61 11006ft 213kts
20-Apr-17 03:27 61.776223 -42.338483 62 11003ft 213kts
20-Apr-17 03:28 61.796600 -42.226851 62 11002ft 212kts
20-Apr-17 03:29 61.817243 -42.112998 62 11002ft 212kts
20-Apr-17 03:30 61.837690 -41.999588 62 11003ft 212kts
20-Apr-17 03:31 61.858257 -41.884879 62 11003ft 212kts
20-Apr-17 03:32 61.878661 -41.770415 62 11004ft 213kts
20-Apr-17 03:33 61.899123 -41.654920 62 11004ft 213kts
20-Apr-17 03:34 61.919176 -41.540950 62 11005ft 213kts
20-Apr-17 03:35 61.939395 -41.425445 62 11005ft 213kts
20-Apr-17 03:36 61.959225 -41.311519 63 11001ft 213kts
20-Apr-17 03:37 61.979173 -41.196160 63 11002ft 212kts
20-Apr-17 03:38 61.999033 -41.080579 63 11002ft 212kts
20-Apr-17 03:39 62.018927 -40.964055 63 11002ft 213kts
20-Apr-17 03:40 62.038828 -40.846791 63 11003ft 213kts
20-Apr-17 03:41 62.058722 -40.729023 63 10927ft 216kts
20-Apr-17 03:42 62.078823 -40.609193 64 10719ft 219kts
20-Apr-17 03:43 62.098600 -40.490065 64 10598ft 216kts
20-Apr-17 03:44 62.117767 -40.373995 64 10602ft 214kts
20-Apr-17 03:45 62.136847 -40.258030 65 10598ft 213kts
20-Apr-17 03:46 62.156162 -40.139744 65 10598ft 213kts
20-Apr-17 03:47 62.175479 -40.020716 65 10599ft 213kts
20-Apr-17 03:48 62.194573 -39.902261 65 10599ft 213kts
20-Apr-17 03:49 62.213627 -39.783291 65 10600ft 213kts
20-Apr-17 03:50 62.232551 -39.664348 65 10600ft 213kts
20-Apr-17 03:51 62.251318 -39.545532 65 10601ft 214kts
20-Apr-17 03:52 62.269809 -39.427705 65 10601ft 214kts
20-Apr-17 03:53 62.287367 -39.315108 66 10598ft 214kts
20-Apr-17 03:54 62.305785 -39.196145 66 10598ft 213kts
20-Apr-17 03:55 62.324132 -39.076879 66 10598ft 214kts
20-Apr-17 03:56 62.342579 -38.956368 66 10599ft 215kts
20-Apr-17 03:57 62.360715 -38.836793 67 10599ft 216kts
20-Apr-17 03:58 62.378961 -38.715377 67 10600ft 216kts
20-Apr-17 03:59 62.397239 -38.593204 67 10600ft 216kts
20-Apr-17 04:00 62.415189 -38.472356 67 10601ft 217kts
20-Apr-17 04:01 62.433044 -38.351284 67 10601ft 217kts
20-Apr-17 04:02 62.450238 -38.233915 68 10597ft 216kts
20-Apr-17 04:03 62.467834 -38.112909 68 10598ft 216kts
20-Apr-17 04:04 62.485546 -37.990299 68 10598ft 216kts
20-Apr-17 04:05 62.503143 -37.867497 68 10599ft 216kts
20-Apr-17 04:06 62.520430 -37.746030 68 10599ft 217kts
20-Apr-17 04:07 62.537460 -37.625563 68 10600ft 217kts
20-Apr-17 04:08 62.554802 -37.502023 68 10600ft 217kts
20-Apr-17 04:09 62.571705 -37.380707 68 10601ft 217kts
20-Apr-17 04:10 62.588507 -37.259160 69 10597ft 217kts
20-Apr-17 04:11 62.605309 -37.136677 69 10598ft 217kts
20-Apr-17 04:12 62.622042 -37.013922 69 10598ft 218kts
20-Apr-17 04:13 62.638534 -36.891870 69 10599ft 219kts
20-Apr-17 04:14 62.655082 -36.768364 69 10599ft 219kts
20-Apr-17 04:15 62.671680 -36.643586 69 10600ft 219kts
20-Apr-17 04:16 62.687624 -36.522846 69 10600ft 219kts
20-Apr-17 04:17 62.704034 -36.397559 69 10601ft 219kts
20-Apr-17 04:18 62.720190 -36.273347 70 10597ft 219kts
20-Apr-17 04:19 62.736434 -36.147277 70 10598ft 219kts
20-Apr-17 04:20 62.752517 -36.021561 70 10598ft 219kts
20-Apr-17 04:21 62.768513 -35.895508 70 10599ft 219kts
20-Apr-17 04:22 62.784364 -35.769573 70 10599ft 219kts
20-Apr-17 04:23 62.800143 -35.643139 70 10600ft 219kts
20-Apr-17 04:24 62.815748 -35.517095 70 10600ft 219kts
20-Apr-17 04:25 62.831273 -35.390675 70 10601ft 219kts
20-Apr-17 04:26 62.846595 -35.264935 71 10597ft 219kts
20-Apr-17 04:27 62.861746 -35.139349 71 10597ft 219kts
20-Apr-17 04:28 62.876840 -35.013253 71 10598ft 219kts
20-Apr-17 04:29 62.891629 -34.888636 71 10599ft 220kts
20-Apr-17 04:30 62.906634 -34.761186 71 10599ft 220kts
20-Apr-17 04:31 62.921216 -34.636300 71 10600ft 221kts
20-Apr-17 04:32 62.935602 -34.511904 71 10600ft 221kts
20-Apr-17 04:33 62.950302 -34.383728 71 10601ft 221kts
20-Apr-17 04:34 62.964478 -34.259163 72 10597ft 221kts
20-Apr-17 04:35 62.978707 -34.132872 72 10597ft 220kts
20-Apr-17 04:36 62.992268 -34.011623 71 10598ft 217kts
20-Apr-17 04:37 63.006138 -33.886261 73 10598ft 217kts
20-Apr-17 04:38 63.019270 -33.766431 72 10599ft 217kts
20-Apr-17 04:39 63.033138 -33.639062 72 10600ft 217kts
20-Apr-17 04:40 63.046548 -33.514240 72 10599ft 217kts
20-Apr-17 04:41 63.059997 -33.388270 72 10599ft 217kts
20-Apr-17 04:42 63.073334 -33.262636 72 10596ft 217kts
20-Apr-17 04:43 63.086351 -33.138462 73 10597ft 216kts
20-Apr-17 04:44 63.099599 -33.010735 73 10598ft 217kts
20-Apr-17 04:45 63.112586 -32.884748 73 10599ft 217kts
20-Apr-17 04:46 63.125386 -32.759095 72 10599ft 218kts
20-Apr-17 04:47 63.138448 -32.629680 73 10600ft 218kts
20-Apr-17 04:48 63.151217 -32.501947 74 10599ft 218kts
20-Apr-17 04:49 63.163845 -32.374310 74 10601ft 218kts
20-Apr-17 04:50 63.176221 -32.247384 75 10597ft 218kts
20-Apr-17 04:51 63.188737 -32.118673 73 10598ft 218kts
20-Apr-17 04:52 63.201093 -31.990545 74 10599ft 218kts
20-Apr-17 04:53 63.213309 -31.861114 73 10598ft 218kts
20-Apr-17 04:54 63.225495 -31.731899 74 10600ft 218kts
20-Apr-17 04:55 63.237492 -31.603107 74 10600ft 218kts
20-Apr-17 04:56 63.249411 -31.473689 74 10601ft 218kts
20-Apr-17 04:57 63.261040 -31.345739 75 10601ft 218kts
20-Apr-17 04:58 63.272515 -31.218693 75 10597ft 218kts
20-Apr-17 04:59 63.283966 -31.090236 74 10598ft 218kts
20-Apr-17 05:00 63.295597 -30.958836 76 10598ft 219kts
20-Apr-17 05:01 63.306998 -30.828392 76 10600ft 219kts
20-Apr-17 05:02 63.317953 -30.700788 76 10600ft 219kts
20-Apr-17 05:03 63.326480 -30.600196 75 10599ft 219kts
20-Apr-17 05:04 63.336692 -30.480118 75 10601ft 220kts
20-Apr-17 05:05 63.347965 -30.347038 78 10604ft 222kts
20-Apr-17 05:06 63.359034 -30.213496 80 10604ft 223kts
20-Apr-17 05:07 63.369883 -30.078848 80 10605ft 224kts
20-Apr-17 05:08 63.380826 -29.942662 80 10605ft 224kts
20-Apr-17 05:09 63.391578 -29.807578 80 10606ft 224kts
20-Apr-17 05:10 63.402434 -29.669445 79 10606ft 224kts
20-Apr-17 05:11 63.413034 -29.532824 79 10607ft 225kts
20-Apr-17 05:12 63.423556 -29.395285 79 10608ft 225kts
20-Apr-17 05:13 63.433817 -29.259585 81 10604ft 224kts
20-Apr-17 05:14 63.443917 -29.123862 81 10604ft 224kts
20-Apr-17 05:15 63.454050 -28.986017 81 10605ft 224kts
20-Apr-17 05:16 63.463983 -28.849060 81 10606ft 225kts
20-Apr-17 05:17 63.473731 -28.712647 81 10606ft 225kts
20-Apr-17 05:18 63.483375 -28.575627 81 10607ft 225kts
20-Apr-17 05:19 63.492253 -28.447850 81 10607ft 225kts
20-Apr-17 05:20 63.501677 -28.310536 82 10604ft 225kts
20-Apr-17 05:22 63.510994 -28.172270 82 10604ft 225kts
20-Apr-17 05:23 63.520173 -28.034140 82 10605ft 225kts
20-Apr-17 05:24 63.529222 -27.895886 82 10606ft 225kts
20-Apr-17 05:25 63.538058 -27.758957 82 10606ft 225kts
20-Apr-17 05:26 63.546875 -27.620045 82 10607ft 225kts
20-Apr-17 05:27 63.555538 -27.481398 82 10607ft 225kts
20-Apr-17 05:28 63.563931 -27.344849 83 10607ft 225kts
20-Apr-17 05:29 63.572191 -27.208572 83 10604ft 225kts
20-Apr-17 05:30 63.580415 -27.070500 83 10605ft 225kts
20-Apr-17 05:31 63.588317 -26.935617 83 10606ft 224kts
20-Apr-17 05:32 63.596274 -26.797322 83 10606ft 225kts
20-Apr-17 05:33 63.604153 -26.657929 83 10607ft 225kts
20-Apr-17 05:34 63.607502 -26.597982 83 10607ft 225kts
20-Apr-17 05:35 63.608654 -26.487733 105 10531ft 177kts
20-Apr-17 05:36 63.608654 -26.487733 105 10531ft 177kts
20-Apr-17 05:54 61.154742 -45.436376 315 3ft 2kts
20-Apr-17 06:13 63.734654 -21.798644 88 11154ft 217kts
20-Apr-17 06:14 63.737951 -21.667126 85 10971ft 216kts
20-Apr-17 06:15 63.741861 -21.536663 85 10916ft 209kts
20-Apr-17 06:16 63.745638 -21.409753 85 10937ft 208kts
20-Apr-17 06:17 63.749126 -21.289591 86 10930ft 209kts
20-Apr-17 06:18 63.752732 -21.159637 86 10924ft 209kts
20-Apr-17 06:19 63.756284 -21.028711 86 10920ft 212kts
20-Apr-17 06:20 63.759769 -20.895427 86 10916ft 216kts
20-Apr-17 06:21 63.763187 -20.759790 86 10916ft 219kts
20-Apr-17 06:22 63.766492 -20.622835 86 10916ft 219kts
20-Apr-17 06:23 63.769675 -20.485478 86 10917ft 220kts
20-Apr-17 06:24 63.772732 -20.349408 87 10923ft 220kts
20-Apr-17 06:25 63.775612 -20.215860 87 11121ft 211kts
20-Apr-17 06:26 63.778326 -20.081391 87 10997ft 221kts
20-Apr-17 06:27 63.781016 -19.943916 87 10997ft 219kts
20-Apr-17 06:28 63.783565 -19.807301 87 10998ft 219kts
20-Apr-17 06:29 63.785974 -19.669725 87 10999ft 220kts
20-Apr-17 06:30 63.788292 -19.527813 87 10591ft 232kts
20-Apr-17 06:31 63.790538 -19.382498 87 10123ft 233kts
20-Apr-17 06:32 63.792653 -19.239868 88 9633ft 232kts
20-Apr-17 06:33 63.794596 -19.095260 87 9129ft 230kts
20-Apr-17 06:34 63.796331 -18.953800 88 8996ft 223kts
20-Apr-17 06:35 63.798025 -18.813818 87 9000ft 223kts
20-Apr-17 06:36 63.799543 -18.672851 86 8858ft 231kts
20-Apr-17 06:37 63.800947 -18.525985 86 8390ft 236kts
20-Apr-17 06:38 63.802531 -18.378798 90 7916ft 232kts
20-Apr-17 06:39 63.803637 -18.253463 95 7488ft 218kts
20-Apr-17 06:40 63.804096 -18.152843 97 7124ft 207kts
20-Apr-17 06:41 63.804552 -18.053298 98 6735ft 202kts
20-Apr-17 06:42 63.805077 -17.946909 98 6333ft 199kts
20-Apr-17 06:43 63.805593 -17.848825 97 5952ft 192kts
20-Apr-17 06:44 63.805852 -17.750913 98 5559ft 192kts
20-Apr-17 06:45 63.806322 -17.641450 98 5112ft 186kts
20-Apr-17 06:46 63.806702 -17.528811 96 5001ft 174kts
20-Apr-17 06:47 63.806779 -17.417298 97 4649ft 183kts
20-Apr-17 06:48 63.806934 -17.319521 96 4244ft 181kts
20-Apr-17 06:49 63.806993 -17.209105 96 3763ft 181kts
20-Apr-17 06:50 63.806864 -17.092894 95 3273ft 189kts
20-Apr-17 06:51 63.806739 -16.973601 94 2997ft 188kts
20-Apr-17 06:52 63.806588 -16.854269 94 2998ft 192kts
20-Apr-17 06:53 63.806272 -16.733408 94 2998ft 193kts
20-Apr-17 06:54 63.815678 -16.616877 56 3000ft 196kts
20-Apr-17 06:55 63.848033 -16.518465 49 2999ft 195kts
20-Apr-17 06:56 63.881992 -16.422563 48 2999ft 195kts
20-Apr-17 06:57 63.915061 -16.329703 49 2997ft 195kts
20-Apr-17 06:58 63.948867 -16.234438 49 2997ft 195kts
20-Apr-17 06:59 63.982708 -16.138686 49 2998ft 195kts
20-Apr-17 07:00 64.016732 -16.042051 49 2998ft 195kts
20-Apr-17 07:01 64.050618 -15.945328 49 2999ft 195kts
20-Apr-17 07:02 64.084217 -15.848522 48 2912ft 198kts
20-Apr-17 07:03 64.114786 -15.760717 47 2998ft 188kts
20-Apr-17 07:04 64.147184 -15.667637 46 3000ft 191kts
20-Apr-17 07:05 64.161665 -15.560704 105 3003ft 192kts
20-Apr-17 07:06 64.151329 -15.443148 102 2555ft 183kts
20-Apr-17 07:07 64.143407 -15.332998 101 2077ft 179kts
20-Apr-17 07:08 64.156917 -15.241240 29 1583ft 171kts
20-Apr-17 07:09 64.195744 -15.181431 357 1071ft 161kts
20-Apr-17 07:10 64.233835 -15.194325 340 896ft 119kts
20-Apr-17 07:11 64.259922 -15.206799 344 478ft 90kts
20-Apr-17 07:12 64.281991 -15.219817 337 163ft 86kts
20-Apr-17 07:13 64.295863 -15.230862 293 3ft 0kts
20-Apr-17 07:14 64.295863 -15.230862 293 3ft 0kts
20-Apr-17 07:15 64.295863 -15.230862 293 3ft 0kts
20-Apr-17 07:16 64.295863 -15.230862 293 3ft 0kts
20-Apr-17 07:16 64.295863 -15.230862 293 3ft 0kts
20-Apr-17 07:18 64.295863 -15.230862 293 3ft 0kts
20-Apr-17 07:19 64.295863 -15.230862 293 3ft 0kts
20-Apr-17 07:19 64.295863 -15.230862 293 3ft 0kts
20-Apr-17 07:21 64.295863 -15.230862 293 3ft 0kts
20-Apr-17 07:21 64.295863 -15.230862 293 3ft 0kts
20-Apr-17 07:23 64.295863 -15.230862 293 3ft 0kts
20-Apr-17 07:23 64.295863 -15.230862 293 3ft 0kts

Navigation Log

Ident Type
Flight plan parsing failed, navigation log unavailable